Time;durP1;ratioP1;P1;durP2;ratioP2;P2;SDS_P1;SDS_P2;PMS_P1;PMS_P2;Temp;Humidity;BMP_temperature;BMP_pressure;BME280_temperature;BME280_humidity;BME280_pressure;Samples;Min_cycle;Max_cycle;Signal;HPM_P1;HPM_P2
2023/10/01 00:00:29;;;;;;;;;;;17.10;99.90;;;;;;5072377;28;20032;-41
2023/10/01 00:02:57;;;;;;;8.82;2.50;;;17.00;99.90;;;;;;5071886;28;19928;-41
2023/10/01 00:05:24;;;;;;;9.32;2.10;;;16.10;99.90;;;;;;5071256;28;20047;-41
2023/10/01 00:07:51;;;;;;;6.25;2.15;;;17.00;99.90;;;;;;5104551;28;20381;-40
2023/10/01 00:10:18;;;;;;;8.57;2.63;;;17.00;99.90;;;;;;5072125;28;20024;-41
2023/10/01 00:12:49;;;;;;;8.73;2.53;;;16.90;99.90;;;;;;5072096;28;20103;-40
2023/10/01 00:15:18;;;;;;;4.75;1.83;;;16.90;99.90;;;;;;5070911;28;20070;-40
2023/10/01 00:17:44;;;;;;;7.25;2.25;;;16.80;99.90;;;;;;5071764;28;20024;-40
2023/10/01 00:22:40;;;;;;;6.30;2.28;;;19.70;99.90;;;;;;5070993;28;20020;-54
2023/10/01 00:25:07;;;;;;;7.45;1.83;;;16.70;99.90;;;;;;5070913;28;20440;-45
2023/10/01 00:27:33;;;;;;;9.75;2.28;;;16.60;99.90;;;;;;5069872;28;20104;-41
2023/10/01 00:29:58;;;;;;;8.88;2.83;;;16.50;99.90;;;;;;5070203;28;20099;-57
2023/10/01 00:32:24;;;;;;;6.15;1.98;;;17.20;99.90;;;;;;5070747;28;20485;-50
2023/10/01 00:34:50;;;;;;;7.30;2.40;;;16.50;99.90;;;;;;5070160;28;20028;-55
2023/10/01 00:37:16;;;;;;;9.88;2.63;;;17.10;99.90;;;;;;5070893;28;20075;-58
2023/10/01 00:39:42;;;;;;;5.32;2.35;;;16.90;99.90;;;;;;5072225;28;20421;-44
2023/10/01 00:42:09;;;;;;;6.80;2.28;;;16.30;99.90;;;;;;5071028;28;20027;-50
2023/10/01 00:44:34;;;;;;;10.88;2.33;;;18.30;99.90;;;;;;5069946;28;20017;-61
2023/10/01 00:47:04;;;;;;;5.35;2.22;;;16.20;99.90;;;;;;5072194;28;20032;-54
2023/10/01 00:49:33;;;;;;;4.97;2.10;;;17.70;99.90;;;;;;5070716;28;20025;-45
2023/10/01 00:52:00;;;;;;;9.70;2.70;;;16.20;99.90;;;;;;5070145;28;20020;-53
2023/10/01 00:54:28;;;;;;;11.55;2.30;;;15.60;99.90;;;;;;5069263;28;20653;-57
2023/10/01 00:56:53;;;;;;;7.65;2.53;;;17.20;99.90;;;;;;5070981;28;20060;-62
2023/10/01 00:59:19;;;;;;;5.97;2.05;;;16.10;99.90;;;;;;5070422;28;20059;-57
2023/10/01 01:01:46;;;;;;;9.93;3.35;;;16.10;99.90;;;;;;5070168;28;20048;-55
2023/10/01 01:04:19;;;;;;;7.63;2.83;;;16.60;99.90;;;;;;5070336;28;20029;-49
2023/10/01 01:06:47;;;;;;;10.25;2.67;;;16.10;99.90;;;;;;5070810;28;20028;-41
2023/10/01 01:09:15;;;;;;;5.32;2.50;;;16.10;99.90;;;;;;5070597;28;20020;-46
2023/10/01 01:11:40;;;;;;;8.25;2.58;;;16.10;99.90;;;;;;5070441;28;20026;-58
2023/10/01 01:14:07;;;;;;;10.73;2.38;;;16.00;99.90;;;;;;5071774;28;20021;-53
2023/10/01 01:16:33;;;;;;;7.72;2.60;;;16.00;99.90;;;;;;5069971;28;20107;-54
2023/10/01 01:19:00;;;;;;;6.97;2.22;;;16.00;99.90;;;;;;5070596;28;20020;-54
2023/10/01 01:21:26;;;;;;;5.57;2.35;;;16.00;99.90;;;;;;5070470;28;20449;-53
2023/10/01 01:23:53;;;;;;;7.90;2.63;;;15.90;99.90;;;;;;5070514;28;20496;-48
2023/10/01 01:26:22;;;;;;;8.55;2.55;;;16.00;99.90;;;;;;5069529;28;20028;-56
2023/10/01 01:28:48;;;;;;;9.63;3.05;;;15.90;99.90;;;;;;5071497;28;20056;-41
2023/10/01 01:31:14;;;;;;;8.57;2.55;;;15.90;99.90;;;;;;5068689;28;20020;-41
2023/10/01 01:33:40;;;;;;;9.10;2.90;;;15.90;99.90;;;;;;5070418;28;20098;-40
2023/10/01 01:36:12;;;;;;;10.40;3.13;;;15.90;99.90;;;;;;5070423;28;20036;-41
2023/10/01 01:39:09;;;;;;;5.28;2.60;;;16.60;99.90;;;;;;5069678;28;20024;-55
2023/10/01 01:41:48;;;;;;;9.68;2.72;;;15.80;99.90;;;;;;5069587;28;20016;-41
2023/10/01 01:44:14;;;;;;;8.98;3.10;;;15.10;99.90;;;;;;5069973;28;20028;-57
2023/10/01 01:46:47;;;;;;;12.68;2.78;;;15.80;99.90;;;;;;5068380;28;20485;-50
2023/10/01 01:49:20;;;;;;;8.48;2.60;;;15.80;99.90;;;;;;5069385;28;20430;-52
2023/10/01 01:51:57;;;;;;;6.32;2.05;;;15.70;99.90;;;;;;5071006;28;20020;-53
2023/10/01 01:54:27;;;;;;;8.75;2.17;;;15.70;99.90;;;;;;5069266;28;20024;-44
2023/10/01 01:56:55;;;;;;;8.18;2.28;;;15.70;99.90;;;;;;5069871;28;20504;-41
2023/10/01 01:59:24;;;;;;;9.32;2.83;;;15.70;99.90;;;;;;5069906;28;20100;-43
2023/10/01 02:01:51;;;;;;;9.73;2.42;;;15.60;99.90;;;;;;5101200;28;20370;-53
2023/10/01 02:04:17;;;;;;;8.20;3.22;;;15.60;99.90;;;;;;5068951;28;20064;-56
2023/10/01 02:06:45;;;;;;;5.53;2.80;;;15.50;99.90;;;;;;5069804;28;20052;-43
2023/10/01 02:09:20;;;;;;;7.93;2.90;;;16.50;99.90;;;;;;5068962;28;20104;-49
2023/10/01 02:11:50;;;;;;;11.20;3.05;;;15.50;99.90;;;;;;5070664;28;20059;-48
2023/10/01 02:14:31;;;;;;;9.18;2.80;;;15.50;99.90;;;;;;5069923;28;20558;-53
2023/10/01 02:17:13;;;;;;;7.15;2.50;;;15.60;99.90;;;;;;5069637;28;20028;-51
2023/10/01 02:19:40;;;;;;;9.27;2.80;;;15.60;99.90;;;;;;5069265;28;20056;-50
2023/10/01 02:22:08;;;;;;;5.95;2.60;;;15.60;99.90;;;;;;5069983;28;20028;-52
2023/10/01 02:24:54;;;;;;;7.22;2.75;;;15.70;99.90;;;;;;5069361;28;20035;-51
2023/10/01 02:27:20;;;;;;;7.38;2.90;;;15.60;99.90;;;;;;5069864;28;20495;-56
2023/10/01 02:30:11;;;;;;;9.75;2.60;;;15.70;99.90;;;;;;5068430;28;20082;-47
2023/10/01 02:32:33;;;;;;;7.28;2.55;;;15.70;99.90;;;;;;5068386;28;21331;-45
2023/10/01 02:34:59;;;;;;;7.72;2.90;;;15.70;99.90;;;;;;5070283;28;20039;-51
2023/10/01 02:37:35;;;;;;;10.15;2.90;;;15.60;99.90;;;;;;5069350;28;20418;-50
2023/10/01 02:40:13;;;;;;;8.63;3.03;;;15.80;99.90;;;;;;5070705;28;20118;-55
2023/10/01 02:42:39;;;;;;;6.63;2.78;;;15.00;99.90;;;;;;5067664;28;20025;-60
2023/10/01 02:45:30;;;;;;;12.05;3.33;;;16.30;99.90;;;;;;5068719;28;20123;-59
2023/10/01 02:48:13;;;;;;;12.07;3.50;;;16.20;99.90;;;;;;5067764;28;20022;-58
2023/10/01 02:50:36;;;;;;;8.35;2.30;;;16.60;99.90;;;;;;5068759;28;20025;-57
2023/10/01 02:53:03;;;;;;;8.02;2.42;;;15.80;99.90;;;;;;5075204;28;20043;-61
2023/10/01 02:55:29;;;;;;;11.65;2.80;;;16.70;99.90;;;;;;5077169;28;20041;-59
2023/10/01 02:58:02;;;;;;;9.63;2.78;;;15.70;99.90;;;;;;5076814;28;20125;-49
2023/10/01 03:00:31;;;;;;;6.97;2.47;;;17.00;99.90;;;;;;5076894;28;20024;-56
2023/10/01 03:02:59;;;;;;;10.93;2.47;;;14.80;99.90;;;;;;5076805;28;20065;-56
2023/10/01 03:05:36;;;;;;;9.02;2.85;;;16.40;99.90;;;;;;5077112;28;20059;-59
2023/10/01 03:08:05;;;;;;;14.32;2.72;;;15.90;99.90;;;;;;5076767;28;20028;-46
2023/10/01 03:10:32;;;;;;;10.15;2.72;;;16.40;99.90;;;;;;5076960;28;20064;-55
2023/10/01 03:13:14;;;;;;;10.15;3.05;;;16.80;99.90;;;;;;5076815;28;20051;-54
2023/10/01 03:15:41;;;;;;;8.30;2.78;;;15.90;99.90;;;;;;5077064;28;20021;-54
2023/10/01 03:18:34;;;;;;;11.13;3.20;;;15.90;99.90;;;;;;5076911;28;20092;-60
2023/10/01 03:28:32;;;;;;;12.25;3.05;;;15.90;99.90;;;;;;5076708;28;20124;-56
2023/10/01 03:31:08;;;;;;;6.30;2.78;;;16.00;99.90;;;;;;5076851;28;20085;-57
2023/10/01 03:33:37;;;;;;;10.88;3.45;;;17.00;99.90;;;;;;5076871;28;20020;-58
2023/10/01 03:36:10;;;;;;;10.57;2.65;;;16.00;99.90;;;;;;5076623;28;20116;-45
2023/10/01 03:38:42;;;;;;;10.90;3.30;;;16.00;99.90;;;;;;5076565;28;20052;-44
2023/10/01 03:41:20;;;;;;;10.38;3.00;;;16.00;99.90;;;;;;5076797;28;20032;-61
2023/10/01 03:43:47;;;;;;;10.55;3.50;;;16.00;99.90;;;;;;5076527;28;20036;-50
2023/10/01 03:46:14;;;;;;;8.38;3.28;;;16.00;99.90;;;;;;5076740;28;20060;-54
2023/10/01 03:48:58;;;;;;;9.65;2.95;;;14.80;99.90;;;;;;5076815;28;20052;-50
2023/10/01 03:51:52;;;;;;;7.82;3.00;;;15.90;99.90;;;;;;5076630;28;20447;-52
2023/10/01 03:54:19;;;;;;;8.40;3.22;;;13.70;99.90;;;;;;5076558;28;20048;-50
2023/10/01 03:56:56;;;;;;;9.00;3.03;;;15.80;99.90;;;;;;5076617;28;20035;-53
2023/10/01 03:59:31;;;;;;;10.73;3.08;;;15.90;99.90;;;;;;5076685;28;20060;-50
2023/10/01 04:02:00;;;;;;;11.88;2.97;;;15.90;99.90;;;;;;5076131;28;20048;-57
2023/10/01 04:04:31;;;;;;;10.38;4.20;;;15.80;99.90;;;;;;5072174;28;20108;-52
2023/10/01 04:07:00;;;;;;;10.02;3.25;;;17.90;99.90;;;;;;5073345;28;20043;-57
2023/10/01 04:09:26;;;;;;;7.32;3.63;;;15.80;99.90;;;;;;5073311;28;20024;-57
2023/10/01 04:14:39;;;;;;;10.80;3.22;;;15.80;99.90;;;;;;5073221;28;20019;-56
2023/10/01 04:17:05;;;;;;;8.10;2.80;;;15.30;99.90;;;;;;5072986;28;20036;-56
2023/10/01 04:19:32;;;;;;;10.02;3.45;;;15.80;99.90;;;;;;5073146;28;20012;-52
2023/10/01 04:21:59;;;;;;;9.55;2.85;;;15.70;99.90;;;;;;5073036;28;20070;-57
2023/10/01 04:24:27;;;;;;;9.57;3.40;;;15.80;99.90;;;;;;5073084;28;20053;-58
2023/10/01 04:26:54;;;;;;;8.70;2.83;;;15.70;99.90;;;;;;5072855;28;20020;-51
2023/10/01 04:29:20;;;;;;;8.27;3.28;;;15.70;99.90;;;;;;5072920;28;20393;-54
2023/10/01 04:31:49;;;;;;;8.40;3.55;;;15.20;99.90;;;;;;5072793;28;20465;-54
2023/10/01 04:34:17;;;;;;;10.82;3.03;;;15.60;99.90;;;;;;5072848;28;20063;-52
2023/10/01 04:36:43;;;;;;;9.57;3.72;;;15.60;99.90;;;;;;5072898;28;20033;-50
2023/10/01 04:39:10;;;;;;;10.27;3.40;;;13.60;99.90;;;;;;5072819;28;20032;-56
2023/10/01 04:41:37;;;;;;;10.45;3.38;;;15.60;99.90;;;;;;5072695;28;20020;-44
2023/10/01 04:44:06;;;;;;;9.13;3.45;;;15.60;99.90;;;;;;5072451;28;20043;-52
2023/10/01 04:46:37;;;;;;;8.38;3.58;;;15.60;99.90;;;;;;5072533;28;20492;-54
2023/10/01 04:49:08;;;;;;;13.95;3.65;;;15.60;99.90;;;;;;5072483;28;20554;-61
2023/10/01 04:51:45;;;;;;;7.95;2.85;;;15.60;99.90;;;;;;5072614;28;20086;-52
2023/10/01 04:54:17;;;;;;;12.00;3.67;;;15.50;99.90;;;;;;5072383;28;20059;-50
2023/10/01 04:56:46;;;;;;;8.55;3.15;;;15.60;99.90;;;;;;5072604;28;20030;-41
2023/10/01 04:59:11;;;;;;;7.47;3.35;;;15.60;99.90;;;;;;5072462;28;20026;-54
2023/10/01 05:01:38;;;;;;;9.88;3.25;;;15.50;99.90;;;;;;5072139;28;20044;-50
2023/10/01 05:04:04;;;;;;;10.75;3.40;;;16.20;99.90;;;;;;5072018;28;20556;-47
2023/10/01 05:06:31;;;;;;;14.75;3.65;;;15.50;99.90;;;;;;5072190;28;20493;-45
2023/10/01 05:08:58;;;;;;;9.98;3.45;;;15.40;99.90;;;;;;5071951;28;20059;-46
2023/10/01 05:11:29;;;;;;;12.90;3.72;;;15.40;99.90;;;;;;5071513;28;20048;-43
2023/10/01 05:13:58;;;;;;;10.68;4.32;;;15.80;99.90;;;;;;5071611;28;20052;-45
2023/10/01 05:16:27;;;;;;;9.60;3.67;;;15.40;99.90;;;;;;5072219;28;20032;-41
2023/10/01 05:19:09;;;;;;;11.68;4.05;;;15.50;99.90;;;;;;5071496;28;20029;-45
2023/10/01 05:21:47;;;;;;;11.80;3.70;;;15.40;99.90;;;;;;5058272;28;20059;-57
2023/10/01 05:24:34;;;;;;;12.20;4.40;;;15.50;99.90;;;;;;5071859;28;20546;-46
2023/10/01 05:27:08;;;;;;;10.32;3.72;;;15.50;99.90;;;;;;5071894;28;20040;-48
2023/10/01 05:29:34;;;;;;;10.75;3.60;;;15.50;99.90;;;;;;5071611;28;20021;-47
2023/10/01 05:32:01;;;;;;;10.35;3.95;;;15.50;99.90;;;;;;5071616;28;20047;-44
2023/10/01 05:34:28;;;;;;;10.90;4.57;;;16.00;99.90;;;;;;5071236;28;20523;-46
2023/10/01 05:37:08;;;;;;;12.10;3.88;;;15.50;99.90;;;;;;5071070;28;20059;-56
2023/10/01 05:39:55;;;;;;;10.43;4.15;;;15.50;99.90;;;;;;5070317;28;20034;-48
2023/10/01 05:42:25;;;;;;;11.32;3.20;;;15.60;99.90;;;;;;5070839;28;20677;-51
2023/10/01 05:44:54;;;;;;;11.68;3.58;;;15.50;99.90;;;;;;5070265;28;20024;-52
2023/10/01 05:47:21;;;;;;;9.75;3.78;;;15.50;99.90;;;;;;5071180;28;20043;-52
2023/10/01 05:49:49;;;;;;;11.82;3.53;;;15.60;99.90;;;;;;5070347;28;20020;-53
2023/10/01 05:52:17;;;;;;;13.80;4.07;;;15.60;99.90;;;;;;5070873;28;20021;-48
2023/10/01 05:54:52;;;;;;;8.10;3.55;;;15.50;99.90;;;;;;5070784;28;20505;-54
2023/10/01 05:57:21;;;;;;;9.75;4.20;;;15.50;99.90;;;;;;5070747;28;20032;-57
2023/10/01 05:59:56;;;;;;;11.05;3.50;;;15.60;99.90;;;;;;5070779;28;20027;-49
2023/10/01 06:02:47;;;;;;;11.10;4.18;;;15.60;99.90;;;;;;5070898;28;20124;-52
2023/10/01 06:05:32;;;;;;;9.20;3.88;;;15.60;99.90;;;;;;5070903;28;20035;-48
2023/10/01 06:07:58;;;;;;;9.98;4.20;;;15.70;99.90;;;;;;5071296;28;20048;-48
2023/10/01 06:10:26;;;;;;;12.10;4.85;;;15.70;99.90;;;;;;5071051;28;20029;-54
2023/10/01 06:12:56;;;;;;;10.60;4.13;;;15.80;99.90;;;;;;5070756;28;20392;-44
2023/10/01 06:15:25;;;;;;;9.65;3.53;;;15.80;99.90;;;;;;5070981;28;20056;-52
2023/10/01 06:17:51;;;;;;;11.50;4.72;;;15.80;99.90;;;;;;5070517;28;20119;-55
2023/10/01 06:20:38;;;;;;;13.68;3.50;;;15.80;99.90;;;;;;5071006;28;20028;-57
2023/10/01 06:23:07;;;;;;;12.32;3.22;;;15.80;99.90;;;;;;5070212;28;20021;-50
2023/10/01 06:25:43;;;;;;;9.57;3.47;;;15.80;99.90;;;;;;5070377;28;20033;-57
2023/10/01 06:28:09;;;;;;;10.95;3.72;;;14.30;99.90;;;;;;5070659;28;20029;-46
2023/10/01 06:30:43;;;;;;;9.27;3.78;;;15.90;99.90;;;;;;5071030;28;20032;-57
2023/10/01 06:33:24;;;;;;;9.60;3.78;;;14.50;99.90;;;;;;5070703;28;20383;-56
2023/10/01 06:36:15;;;;;;;11.18;3.67;;;17.10;99.90;;;;;;5070637;28;20039;-55
2023/10/01 06:38:45;;;;;;;10.95;3.95;;;16.20;99.90;;;;;;5070279;28;20025;-47
2023/10/01 06:41:20;;;;;;;8.82;3.63;;;16.30;99.90;;;;;;5070429;28;20439;-54
2023/10/01 06:43:49;;;;;;;10.48;3.35;;;16.40;99.90;;;;;;5070615;28;20017;-57
2023/10/01 06:46:28;;;;;;;16.95;3.78;;;16.40;99.90;;;;;;5070267;28;20075;-54
2023/10/01 06:48:58;;;;;;;10.52;3.88;;;16.40;99.90;;;;;;5063811;28;20397;-53
2023/10/01 06:51:26;;;;;;;10.80;3.35;;;16.50;99.90;;;;;;5066390;28;20074;-56
2023/10/01 06:53:59;;;;;;;14.40;3.63;;;15.30;99.90;;;;;;5063051;28;20044;-47
2023/10/01 06:56:27;;;;;;;8.40;3.10;;;16.60;99.90;;;;;;5066535;28;20340;-50
2023/10/01 07:01:42;;;;;;;15.23;3.70;;;16.70;99.90;;;;;;5066160;28;20085;-48
2023/10/01 07:04:11;;;;;;;10.55;3.90;;;16.80;99.90;;;;;;5070308;28;20481;-56
2023/10/01 07:06:37;;;;;;;7.82;2.83;;;16.90;99.90;;;;;;5070317;28;20058;-58
2023/10/01 07:09:07;;;;;;;12.82;4.18;;;16.90;99.90;;;;;;5070493;28;20331;-48
2023/10/01 07:11:33;;;;;;;;;;;17.00;99.90;;;;;;5070753;28;20035;-49
2023/10/01 07:14:01;;;;;;;13.75;4.10;;;17.10;99.90;;;;;;5070194;28;19905;-54
2023/10/01 07:16:39;;;;;;;9.63;3.90;;;17.20;99.90;;;;;;5070810;28;20103;-48
2023/10/01 07:19:11;;;;;;;12.20;4.20;;;17.20;99.90;;;;;;5070220;28;20060;-52
2023/10/01 07:21:41;;;;;;;10.15;3.60;;;17.30;99.90;;;;;;5070130;28;20024;-48
2023/10/01 07:24:10;;;;;;;10.35;3.60;;;17.40;99.90;;;;;;5070138;28;20040;-45
2023/10/01 07:26:40;;;;;;;13.38;3.78;;;17.70;99.90;;;;;;5070005;28;20040;-52
2023/10/01 07:29:06;;;;;;;15.80;3.97;;;17.50;99.90;;;;;;5069989;28;20373;-52
2023/10/01 07:31:35;;;;;;;10.68;4.13;;;17.50;99.90;;;;;;5070083;28;20024;-43
2023/10/01 07:34:12;;;;;;;10.35;3.70;;;17.60;99.90;;;;;;5070048;28;20028;-57
2023/10/01 07:36:39;;;;;;;9.93;3.40;;;17.60;99.90;;;;;;5069897;28;20123;-56
2023/10/01 07:39:05;;;;;;;13.93;3.60;;;17.70;99.90;;;;;;5073285;28;20107;-48
2023/10/01 07:41:38;;;;;;;16.00;4.72;;;17.70;99.90;;;;;;5070996;28;20441;-44
2023/10/01 07:44:08;;;;;;;13.02;3.78;;;17.70;99.90;;;;;;5064855;28;20037;-47
2023/10/01 07:46:36;;;;;;;10.98;4.15;;;17.70;99.90;;;;;;5064694;28;20041;-52
2023/10/01 07:49:03;;;;;;;12.03;3.40;;;17.70;99.90;;;;;;5067437;28;20233;-41
2023/10/01 07:51:35;;;;;;;12.77;3.30;;;17.70;99.90;;;;;;5104810;28;20493;-60
2023/10/01 07:54:09;;;;;;;6.82;3.15;;;17.70;99.90;;;;;;5053898;28;20021;-53
2023/10/01 07:56:39;;;;;;;14.00;4.00;;;17.80;99.90;;;;;;5054995;28;20025;-54
2023/10/01 07:59:23;;;;;;;12.35;3.35;;;17.80;99.90;;;;;;5065913;28;20028;-54
2023/10/01 08:02:07;;;;;;;10.27;3.05;;;17.90;99.90;;;;;;5065257;28;20409;-61
2023/10/01 08:07:18;;;;;;;9.18;3.05;;;18.00;99.90;;;;;;5073123;28;20123;-45
2023/10/01 08:09:54;;;;;;;10.30;3.78;;;18.00;99.90;;;;;;5073137;28;20055;-55
2023/10/01 08:17:47;;;;;;;10.98;3.65;;;18.10;99.90;;;;;;5073156;28;20062;-56
2023/10/01 08:20:22;;;;;;;11.25;3.78;;;18.20;99.90;;;;;;5072934;28;20454;-52
2023/10/01 08:25:32;;;;;;;13.60;3.83;;;18.20;99.90;;;;;;5071814;28;20098;-51
2023/10/01 08:30:39;;;;;;;9.80;3.85;;;18.20;99.90;;;;;;5072782;28;20025;-55
2023/10/01 08:33:26;;;;;;;12.07;3.40;;;18.20;99.90;;;;;;5072485;28;20116;-53
2023/10/01 08:36:01;;;;;;;11.52;4.18;;;18.30;99.90;;;;;;5072848;28;20091;-52
2023/10/01 08:38:34;;;;;;;11.73;3.40;;;18.30;99.90;;;;;;5066731;28;20021;-51
2023/10/01 08:41:03;;;;;;;16.10;4.82;;;18.30;99.90;;;;;;5065714;28;20040;-60
2023/10/01 08:43:31;;;;;;;11.30;3.70;;;18.40;99.90;;;;;;5063221;28;20382;-52
2023/10/01 08:46:31;;;;;;;9.90;3.10;;;18.40;99.90;;;;;;5070529;28;20041;-48
2023/10/01 08:49:18;;;;;;;10.85;4.15;;;18.60;99.90;;;;;;5069828;28;20035;-50
2023/10/01 08:51:43;;;;;;;13.70;3.92;;;18.60;99.90;;;;;;5068590;28;21213;-51
2023/10/01 08:54:15;;;;;;;9.40;3.60;;;18.70;99.90;;;;;;5104937;28;20019;-54
2023/10/01 08:56:44;;;;;;;13.38;3.75;;;18.70;99.90;;;;;;5067780;28;20072;-48
2023/10/01 08:59:23;;;;;;;8.45;3.38;;;18.80;99.90;;;;;;5065688;28;20078;-47
2023/10/01 09:01:52;;;;;;;9.43;3.05;;;18.80;99.90;;;;;;5068148;28;20075;-56
2023/10/01 09:04:44;;;;;;;10.00;3.50;;;18.70;99.90;;;;;;5104631;28;20382;-61
2023/10/01 09:07:17;;;;;;;8.88;3.50;;;18.70;99.90;;;;;;5058320;28;20136;-56
2023/10/01 09:09:53;;;;;;;9.75;3.13;;;18.80;99.90;;;;;;5064837;28;20100;-60
2023/10/01 09:12:19;;;;;;;13.70;3.30;;;18.80;99.90;;;;;;5052915;28;20029;-56
2023/10/01 09:14:46;;;;;;;12.88;3.67;;;18.70;99.90;;;;;;5052540;28;20048;-54
2023/10/01 09:17:26;;;;;;;13.15;3.53;;;18.80;99.90;;;;;;5052470;28;20029;-56
2023/10/01 09:19:52;;;;;;;8.57;2.90;;;18.80;99.90;;;;;;5058453;28;20036;-60
2023/10/01 09:22:35;;;;;;;7.22;3.13;;;18.80;99.90;;;;;;5067046;28;20036;-54
2023/10/01 09:25:19;;;;;;;13.45;3.80;;;19.20;99.90;;;;;;5065005;28;20020;-52
2023/10/01 09:27:58;;;;;;;9.27;3.85;;;18.80;99.90;;;;;;5058515;28;20073;-61
2023/10/01 09:30:27;;;;;;;11.82;3.60;;;18.80;99.90;;;;;;5067441;28;20115;-46
2023/10/01 09:32:54;;;;;;;10.02;3.50;;;18.80;99.90;;;;;;5061070;28;20066;-40
2023/10/01 09:35:39;;;;;;;11.38;3.33;;;18.90;99.90;;;;;;5068253;28;20040;-40
2023/10/01 09:38:13;;;;;;;9.02;3.10;;;19.00;99.90;;;;;;5064366;28;20054;-40
2023/10/01 09:40:43;;;;;;;13.60;3.65;;;19.10;99.90;;;;;;5067459;28;20021;-40
2023/10/01 09:43:19;;;;;;;9.82;3.53;;;19.10;99.90;;;;;;5067945;28;20017;-40
2023/10/01 09:45:49;;;;;;;8.18;3.13;;;19.20;99.90;;;;;;5064361;28;20040;-47
2023/10/01 09:48:29;;;;;;;11.02;4.05;;;19.20;99.90;;;;;;5059587;28;20025;-55
2023/10/01 09:51:08;;;;;;;10.45;3.40;;;19.20;99.90;;;;;;5054417;28;20120;-47
2023/10/01 09:53:54;;;;;;;9.13;3.75;;;19.20;99.90;;;;;;5058628;28;20991;-57
2023/10/01 09:56:26;;;;;;;7.45;3.10;;;19.30;99.90;;;;;;5057956;28;20040;-56
2023/10/01 09:59:03;;;;;;;10.55;3.35;;;19.40;99.90;;;;;;5062005;28;20111;-42
2023/10/01 10:01:33;;;;;;;8.70;3.50;;;19.50;99.90;;;;;;5066660;28;20027;-41
2023/10/01 10:04:03;;;;;;;8.52;3.15;;;19.60;99.90;;;;;;5059353;28;20520;-40
2023/10/01 10:06:30;;;;;;;9.30;3.13;;;19.70;99.90;;;;;;5068308;28;20037;-41
2023/10/01 10:09:06;;;;;;;7.93;3.13;;;19.70;99.90;;;;;;5067211;28;20103;-40
2023/10/01 10:11:37;;;;;;;10.25;2.80;;;19.70;99.90;;;;;;5065213;28;20017;-43
2023/10/01 10:14:26;;;;;;;13.20;3.80;;;19.80;99.90;;;;;;5058325;28;20029;-41
2023/10/01 10:23:13;;;;;;;12.52;3.60;;;20.00;99.90;;;;;;5061576;28;20162;-51
2023/10/01 10:25:40;;;;;;;10.43;3.20;;;20.10;99.90;;;;;;5062309;28;20044;-41
2023/10/01 10:28:06;;;;;;;11.27;3.03;;;21.10;99.90;;;;;;5057379;28;20025;-42
2023/10/01 10:30:32;;;;;;;11.25;3.60;;;20.50;99.90;;;;;;5059417;28;20461;-42
2023/10/01 10:33:16;;;;;;;10.45;3.42;;;20.80;99.90;;;;;;5062726;28;20021;-41
2023/10/01 10:35:47;;;;;;;9.52;3.40;;;21.00;99.90;;;;;;5063556;28;20476;-41
2023/10/01 10:38:51;;;;;;;11.15;3.78;;;21.10;99.90;;;;;;5058665;28;20032;-50
2023/10/01 10:41:17;;;;;;;12.75;3.00;;;20.20;99.90;;;;;;5068123;28;20024;-56
2023/10/01 10:44:08;;;;;;;12.95;3.90;;;20.90;99.90;;;;;;5065827;28;20020;-52
2023/10/01 10:46:59;;;;;;;7.53;3.22;;;20.80;99.90;;;;;;5065601;28;20097;-49
2023/10/01 10:49:52;;;;;;;10.48;3.17;;;20.90;99.90;;;;;;5062048;28;20016;-42
2023/10/01 10:52:32;;;;;;;8.10;3.10;;;21.00;99.90;;;;;;5060500;28;20431;-44
2023/10/01 10:55:16;;;;;;;12.18;3.20;;;20.90;99.90;;;;;;5061462;28;20111;-41
2023/10/01 10:57:48;;;;;;;11.32;3.38;;;21.10;99.90;;;;;;5068322;28;20025;-41
2023/10/01 11:00:27;;;;;;;9.45;3.42;;;21.10;99.90;;;;;;5062203;28;20030;-41
2023/10/01 11:02:57;;;;;;;8.98;2.72;;;21.20;99.90;;;;;;5056965;28;20063;-55
2023/10/01 11:05:29;;;;;;;;;;;21.20;99.90;;;;;;5070789;28;20113;-54
2023/10/01 11:07:58;;;;;;;7.18;3.28;;;21.20;99.90;;;;;;5065477;28;19920;-55
2023/10/01 11:10:43;;;;;;;10.00;3.10;;;21.30;99.90;;;;;;5068982;28;20021;-56
2023/10/01 11:13:13;;;;;;;8.43;2.60;;;21.10;99.90;;;;;;5067246;28;20491;-55
2023/10/01 11:15:42;;;;;;;11.18;3.83;;;21.20;99.90;;;;;;5068169;28;20488;-48
2023/10/01 11:18:11;;;;;;;7.75;2.92;;;21.30;99.90;;;;;;5067685;28;20502;-57
2023/10/01 11:20:45;;;;;;;7.47;2.57;;;21.40;99.90;;;;;;5071984;28;20074;-52
2023/10/01 11:23:11;;;;;;;11.45;3.35;;;21.50;99.90;;;;;;5071806;28;20485;-57
2023/10/01 11:25:40;;;;;;;12.27;3.70;;;21.50;99.90;;;;;;5062123;28;20028;-50
2023/10/01 11:28:06;;;;;;;10.02;3.13;;;20.80;99.90;;;;;;5059024;28;20028;-51
2023/10/01 11:30:44;;;;;;;10.68;3.08;;;21.30;99.90;;;;;;5068465;28;20539;-48
2023/10/01 11:33:13;;;;;;;7.43;2.88;;;21.20;99.90;;;;;;5069846;28;20029;-50
2023/10/01 11:36:06;;;;;;;8.25;3.00;;;21.10;99.90;;;;;;5059454;28;20020;-49
2023/10/01 11:38:33;;;;;;;9.68;3.28;;;21.20;99.90;;;;;;5072982;28;20131;-45
2023/10/01 11:41:12;;;;;;;8.95;3.05;;;21.10;99.90;;;;;;5067230;28;20070;-51
2023/10/01 11:43:40;;;;;;;9.85;3.63;;;21.00;99.90;;;;;;5063274;28;20026;-57
2023/10/01 11:49:17;;;;;;;9.82;3.50;;;20.90;99.90;;;;;;5058876;28;20269;-49
2023/10/01 11:51:54;;;;;;;12.40;3.40;;;20.80;99.90;;;;;;5064825;28;20082;-56
2023/10/01 11:54:22;;;;;;;10.93;3.40;;;20.70;99.90;;;;;;5063339;28;20507;-48
2023/10/01 11:57:05;;;;;;;12.40;3.60;;;20.70;99.90;;;;;;5064406;28;20359;-55
2023/10/01 11:59:32;;;;;;;9.48;3.00;;;20.80;99.90;;;;;;5060252;28;20482;-49
2023/10/01 12:02:18;;;;;;;11.30;3.45;;;20.80;99.90;;;;;;5070625;28;20041;-44
2023/10/01 12:04:43;;;;;;;9.02;3.70;;;20.80;99.90;;;;;;5061267;28;20520;-44
2023/10/01 12:07:16;;;;;;;11.48;3.67;;;20.80;99.90;;;;;;5052541;28;20052;-44
2023/10/01 12:09:51;;;;;;;12.52;4.15;;;20.70;99.90;;;;;;5051968;28;20013;-41
2023/10/01 12:12:19;;;;;;;9.18;3.63;;;20.80;99.90;;;;;;5053182;28;20033;-40
2023/10/01 12:14:57;;;;;;;8.52;3.30;;;20.70;99.90;;;;;;5055361;28;20100;-41
2023/10/01 12:17:29;;;;;;;9.37;3.83;;;20.70;99.90;;;;;;5069103;28;20431;-59
2023/10/01 12:20:01;;;;;;;10.45;3.45;;;20.70;99.90;;;;;;5054973;28;20266;-53
2023/10/01 12:22:30;;;;;;;9.13;3.40;;;20.80;99.90;;;;;;5066540;28;20064;-53
2023/10/01 12:24:59;;;;;;;9.95;4.18;;;22.10;99.90;;;;;;5063898;28;20023;-44
2023/10/01 12:27:37;;;;;;;;;;;20.50;99.90;;;;;;5071375;28;20058;-57
2023/10/01 12:30:10;;;;;;;11.90;3.47;;;20.60;99.90;;;;;;5070994;28;19912;-50
2023/10/01 12:32:48;;;;;;;10.73;3.95;;;20.80;99.90;;;;;;5070803;28;20024;-49
2023/10/01 12:35:27;;;;;;;13.05;3.80;;;21.00;99.90;;;;;;5070770;28;20025;-56
2023/10/01 12:40:36;;;;;;;9.05;3.63;;;23.10;99.90;;;;;;5063399;28;20521;-53
2023/10/01 12:45:50;;;;;;;11.32;3.25;;;21.70;99.90;;;;;;5065895;28;20044;-55
2023/10/01 12:48:20;;;;;;;7.43;3.25;;;21.70;99.90;;;;;;5069315;28;20481;-56
2023/10/01 12:51:03;;;;;;;7.68;3.60;;;21.80;99.90;;;;;;5067150;28;20366;-54
2023/10/01 12:53:34;;;;;;;12.93;3.42;;;21.90;99.90;;;;;;5063952;28;20017;-62
2023/10/01 12:56:04;;;;;;;10.85;4.03;;;23.00;99.90;;;;;;5061097;28;20394;-54
2023/10/01 12:58:36;;;;;;;11.10;3.50;;;22.20;99.90;;;;;;5056141;28;20031;-45
2023/10/01 13:01:31;;;;;;;11.27;3.58;;;22.10;99.90;;;;;;5064132;28;20036;-55
2023/10/01 13:04:16;;;;;;;12.32;4.30;;;22.10;99.90;;;;;;5069311;28;20533;-45
2023/10/01 13:06:43;;;;;;;10.02;3.55;;;22.20;99.90;;;;;;5053206;28;20048;-52
2023/10/01 13:09:34;;;;;;;8.57;3.05;;;22.30;99.90;;;;;;5067017;28;20631;-46
2023/10/01 13:11:59;;;;;;;8.63;3.13;;;22.50;99.90;;;;;;5071732;28;20048;-50
2023/10/01 13:14:28;;;;;;;11.30;3.63;;;22.70;99.90;;;;;;5063627;28;20032;-58
2023/10/01 13:17:00;;;;;;;9.98;3.83;;;22.80;99.90;;;;;;5060565;28;20086;-57
2023/10/01 13:19:33;;;;;;;10.75;3.63;;;22.90;99.90;;;;;;5059348;28;20033;-48
2023/10/01 13:22:00;;;;;;;10.65;3.08;;;23.10;99.90;;;;;;5067126;28;20036;-47
2023/10/01 13:24:26;;;;;;;10.80;3.50;;;23.30;99.90;;;;;;5052704;28;20115;-53
2023/10/01 13:27:05;;;;;;;10.60;3.63;;;23.90;99.90;;;;;;5053822;28;20444;-46
2023/10/01 13:29:31;;;;;;;7.95;3.38;;;23.20;99.90;;;;;;5058711;28;20116;-51
2023/10/01 13:32:02;;;;;;;10.57;3.42;;;23.20;99.90;;;;;;5070082;28;20112;-50
2023/10/01 13:34:46;;;;;;;9.70;3.47;;;23.40;99.90;;;;;;5069980;28;20027;-55
2023/10/01 13:37:18;;;;;;;9.75;3.53;;;25.30;99.90;;;;;;5070493;28;20032;-51
2023/10/01 13:39:48;;;;;;;8.30;2.88;;;23.20;99.90;;;;;;5066493;28;20032;-53
2023/10/01 14:09:48;;;;;;;7.57;2.88;;;22.80;99.90;;;;;;5054811;28;20381;-53
2023/10/01 14:15:21;;;;;;;6.72;2.63;;;22.80;99.90;;;;;;5065485;28;20039;-52
2023/10/01 14:17:52;;;;;;;11.88;3.60;;;24.20;99.90;;;;;;5057481;28;20036;-48
2023/10/01 14:20:37;;;;;;;10.77;3.40;;;22.90;99.90;;;;;;5069790;28;20025;-43
2023/10/01 14:23:04;;;;;;;13.95;3.88;;;22.90;99.90;;;;;;5056757;28;20111;-48